createdAt,value
2018-07-14T00:02:24.489Z,16.00
2018-07-14T00:04:59.277Z,16.00
2018-07-14T00:07:34.004Z,15.90
2018-07-14T00:10:08.866Z,15.90
2018-07-14T00:12:43.805Z,15.90
2018-07-14T00:17:53.856Z,15.80
2018-07-14T00:20:29.628Z,15.80
2018-07-14T00:25:44.072Z,15.70
2018-07-14T00:28:18.816Z,15.70
2018-07-14T00:30:53.636Z,15.60
2018-07-14T00:36:03.048Z,15.50
2018-07-14T00:38:37.733Z,15.50
2018-07-14T00:41:12.500Z,15.50
2018-07-14T00:43:47.218Z,15.60
2018-07-14T00:46:22.343Z,15.50
2018-07-14T00:48:57.082Z,15.60
2018-07-14T00:51:31.837Z,15.60
2018-07-14T00:54:06.623Z,15.70
2018-07-14T00:56:41.379Z,15.70
2018-07-14T00:59:16.275Z,15.70
2018-07-14T01:01:51.037Z,15.80
2018-07-14T01:04:25.954Z,15.90
2018-07-14T01:07:01.737Z,15.90
2018-07-14T01:09:36.485Z,16.00
2018-07-14T01:17:20.808Z,16.00
2018-07-14T01:19:55.757Z,16.00
2018-07-14T01:22:30.496Z,16.00
2018-07-14T01:25:05.262Z,16.00
2018-07-14T01:27:40.065Z,16.00
2018-07-14T01:30:14.784Z,16.00
2018-07-14T01:32:49.530Z,15.90
2018-07-14T01:37:58.496Z,15.90
2018-07-14T01:40:33.571Z,15.90
2018-07-14T01:43:09.321Z,15.90
2018-07-14T01:45:44.021Z,15.90
2018-07-14T01:48:18.778Z,15.90
2018-07-14T01:50:53.476Z,15.90
2018-07-14T01:53:28.244Z,15.90
2018-07-14T01:56:02.965Z,15.80
2018-07-14T01:58:37.699Z,15.80
2018-07-14T02:01:13.457Z,15.80
2018-07-14T02:06:22.456Z,15.90
2018-07-14T02:08:57.228Z,15.90
2018-07-14T02:14:06.247Z,15.90
2018-07-14T02:16:41.993Z,15.90
2018-07-14T02:19:16.786Z,15.80
2018-07-14T02:21:51.605Z,15.80
2018-07-14T02:24:26.301Z,15.80
2018-07-14T02:27:01.076Z,15.80
2018-07-14T02:29:36.002Z,15.80
2018-07-14T02:32:10.775Z,15.80
2018-07-14T02:34:45.484Z,15.80
2018-07-14T02:37:21.238Z,15.80
2018-07-14T02:39:55.965Z,15.70
2018-07-14T02:42:30.771Z,15.70
2018-07-14T02:45:07.204Z,15.70
2018-07-14T02:47:42.948Z,15.70
2018-07-14T02:50:17.712Z,15.70
2018-07-14T02:52:52.461Z,15.70
2018-07-14T02:55:27.220Z,15.60
2018-07-14T02:58:01.935Z,15.60
2018-07-14T03:00:36.738Z,15.60
2018-07-14T03:03:11.518Z,15.60
2018-07-14T03:05:46.271Z,15.60
2018-07-14T03:08:21.005Z,15.50
2018-07-14T03:10:55.753Z,15.60
2018-07-14T03:13:30.549Z,15.60
2018-07-14T03:16:05.398Z,15.60
2018-07-14T03:18:40.108Z,15.50
2018-07-14T03:21:14.869Z,15.60
2018-07-14T03:28:58.071Z,15.50
2018-07-14T03:31:32.837Z,15.40
2018-07-14T03:34:07.562Z,15.40
2018-07-14T03:36:42.355Z,15.40
2018-07-14T03:39:17.231Z,15.40
2018-07-14T03:44:27.483Z,15.40
2018-07-14T03:47:03.285Z,15.50
2018-07-14T03:49:38.102Z,15.50
2018-07-14T03:52:13.958Z,15.50
2018-07-14T03:54:48.700Z,15.60
2018-07-14T03:57:24.489Z,15.60
2018-07-14T03:59:59.212Z,15.60
2018-07-14T04:02:34.024Z,15.70
2018-07-14T04:05:08.780Z,15.70
2018-07-14T04:07:43.550Z,15.70
2018-07-14T04:10:18.273Z,15.70
2018-07-14T04:12:53.012Z,15.70
2018-07-14T04:15:27.752Z,15.80
2018-07-14T04:18:05.551Z,15.80
2018-07-14T04:20:40.285Z,15.80
2018-07-14T04:23:14.985Z,15.80
2018-07-14T04:25:50.709Z,15.80
2018-07-14T04:28:26.550Z,15.90
2018-07-14T04:33:35.556Z,15.90
2018-07-14T04:36:10.297Z,15.90
2018-07-14T04:38:46.080Z,16.00
2018-07-14T04:41:20.802Z,16.00
2018-07-14T04:43:55.558Z,16.10
2018-07-14T04:46:30.287Z,16.10
2018-07-14T04:49:06.122Z,16.10
2018-07-14T04:51:40.822Z,16.20
2018-07-14T04:54:15.599Z,16.20
2018-07-14T04:56:50.330Z,16.10
2018-07-14T04:59:25.097Z,16.20
2018-07-14T05:01:59.855Z,16.30
2018-07-14T05:04:34.629Z,16.30
2018-07-14T05:07:09.349Z,16.40
2018-07-14T05:09:44.176Z,16.40
2018-07-14T05:12:18.894Z,16.40
2018-07-14T05:14:53.693Z,16.50
2018-07-14T05:17:28.476Z,16.50
2018-07-14T05:20:03.248Z,16.60
2018-07-14T05:22:37.978Z,16.60
2018-07-14T05:25:13.756Z,16.60
2018-07-14T05:27:49.487Z,16.70
2018-07-14T05:30:25.303Z,16.70
2018-07-14T05:33:00.039Z,16.70
2018-07-14T05:35:35.208Z,16.70
2018-07-14T05:38:09.932Z,16.70
2018-07-14T05:40:44.708Z,16.70
2018-07-14T05:48:29.004Z,16.80
2018-07-14T05:51:03.808Z,16.80
2018-07-14T05:53:38.595Z,16.80
2018-07-14T05:56:13.360Z,16.90
2018-07-14T05:58:48.131Z,16.90
2018-07-14T06:01:23.922Z,17.00
2018-07-14T06:03:59.709Z,17.00
2018-07-14T06:06:34.489Z,17.00
2018-07-14T06:09:09.230Z,17.10
2018-07-14T06:11:43.976Z,17.10
2018-07-14T06:16:53.165Z,17.30
2018-07-14T06:19:27.898Z,17.30
2018-07-14T06:22:03.916Z,17.40
2018-07-14T06:29:49.160Z,17.80
2018-07-14T06:32:23.986Z,17.90
2018-07-14T06:34:58.680Z,17.90
2018-07-14T06:37:33.440Z,18.10
2018-07-14T06:40:08.194Z,18.10
2018-07-14T06:42:42.996Z,18.10
2018-07-14T06:45:17.780Z,17.90
2018-07-14T06:50:26.816Z,17.90
2018-07-14T06:53:02.663Z,18.20
2018-07-14T06:55:38.417Z,18.30
2018-07-14T06:58:13.201Z,18.40
2018-07-14T07:00:47.885Z,18.50
2018-07-14T07:03:23.703Z,18.60
2018-07-14T07:05:58.766Z,18.60
2018-07-14T07:11:07.787Z,18.60
2018-07-14T07:13:42.581Z,18.60
2018-07-14T07:16:18.560Z,18.70
2018-07-14T07:18:53.322Z,18.70
2018-07-14T07:21:28.128Z,18.70
2018-07-14T07:29:11.605Z,18.90
2018-07-14T07:31:46.346Z,18.80
2018-07-14T07:34:21.114Z,18.80
2018-07-14T07:36:55.892Z,19.00
2018-07-14T07:39:30.860Z,18.90
2018-07-14T07:42:05.627Z,18.90
2018-07-14T07:47:14.720Z,19.10
2018-07-14T07:49:49.474Z,19.20
2018-07-14T07:52:24.169Z,19.30
2018-07-14T07:54:58.955Z,19.20
2018-07-14T08:00:09.086Z,19.30
2018-07-14T08:02:43.816Z,19.10
2018-07-14T08:05:18.608Z,19.20
2018-07-14T08:07:53.976Z,19.00
2018-07-14T08:10:29.772Z,19.00
2018-07-14T08:13:04.497Z,18.90
2018-07-14T08:15:39.269Z,19.10
2018-07-14T08:18:13.982Z,18.90
2018-07-14T08:20:48.731Z,18.90
2018-07-14T08:23:23.428Z,18.80
2018-07-14T08:25:58.205Z,18.70
2018-07-14T08:28:32.893Z,18.80
2018-07-14T08:31:07.708Z,18.70
2018-07-14T08:33:43.479Z,18.70
2018-07-14T08:36:18.256Z,18.70
2018-07-14T08:41:27.267Z,18.80
2018-07-14T08:44:02.125Z,18.90
2018-07-14T08:49:12.232Z,19.00
2018-07-14T08:51:46.973Z,19.00
2018-07-14T08:54:21.661Z,19.10
2018-07-14T08:56:56.453Z,19.20
2018-07-14T08:59:31.165Z,19.30
2018-07-14T09:02:05.942Z,19.30
2018-07-14T09:04:40.673Z,19.50
2018-07-14T09:07:15.509Z,19.40
2018-07-14T09:09:51.253Z,19.20
2018-07-14T09:12:26.015Z,19.30
2018-07-14T09:15:01.515Z,19.50
2018-07-14T09:20:10.080Z,19.60
2018-07-14T09:22:44.842Z,19.70
2018-07-14T09:25:19.913Z,19.80
2018-07-14T09:27:54.662Z,19.80
2018-07-14T09:30:30.453Z,19.80
2018-07-14T09:33:05.264Z,19.90
2018-07-14T09:35:40.047Z,19.90
2018-07-14T09:38:14.839Z,19.80
2018-07-14T09:40:49.561Z,20.00
2018-07-14T09:43:24.376Z,19.80
2018-07-14T09:45:59.770Z,19.70
2018-07-14T09:48:34.562Z,19.80
2018-07-14T09:51:10.280Z,19.80
2018-07-14T09:53:45.061Z,20.10
2018-07-14T09:56:19.812Z,20.30
2018-07-14T09:58:54.585Z,20.40
2018-07-14T10:01:29.326Z,20.30
2018-07-14T10:04:04.163Z,20.10
2018-07-14T10:06:39.028Z,20.00
2018-07-14T10:09:13.809Z,19.90
2018-07-14T10:11:48.512Z,20.00
2018-07-14T10:14:24.300Z,20.10
2018-07-14T10:16:59.076Z,20.00
2018-07-14T10:19:34.791Z,19.90
2018-07-14T10:22:09.531Z,19.90
2018-07-14T10:24:44.316Z,19.90
2018-07-14T10:27:18.988Z,19.90
2018-07-14T10:29:53.799Z,20.30
2018-07-14T10:32:28.568Z,20.50
2018-07-14T10:35:03.338Z,20.50
2018-07-14T10:37:38.112Z,20.50
2018-07-14T10:40:12.891Z,20.70
2018-07-14T10:42:47.718Z,20.80
2018-07-14T10:45:22.452Z,20.80
2018-07-14T10:47:57.177Z,21.10
2018-07-14T10:50:32.964Z,21.10
2018-07-14T10:53:07.680Z,21.00
2018-07-14T10:55:42.478Z,20.80
2018-07-14T10:58:17.264Z,20.90
2018-07-14T11:03:27.448Z,20.70
2018-07-14T11:06:02.257Z,20.50
2018-07-14T11:08:36.965Z,20.60
2018-07-14T11:11:12.949Z,20.60
2018-07-14T11:13:47.663Z,20.30
2018-07-14T11:16:22.448Z,20.20
2018-07-14T11:18:58.205Z,20.00
2018-07-14T11:21:32.965Z,19.90
2018-07-14T11:24:07.701Z,19.80
2018-07-14T11:26:42.475Z,19.80
2018-07-14T11:29:17.191Z,19.90
2018-07-14T11:31:51.999Z,19.80
2018-07-14T11:34:26.760Z,19.70
2018-07-14T11:37:01.503Z,19.70
2018-07-14T11:39:39.965Z,19.70
2018-07-14T11:42:25.831Z,19.60
2018-07-14T11:45:11.167Z,19.40
2018-07-14T11:47:46.797Z,19.40
2018-07-14T11:50:21.672Z,19.30
2018-07-14T11:53:04.124Z,19.20
2018-07-14T11:55:53.827Z,19.20
2018-07-14T11:58:29.740Z,19.20
2018-07-14T12:01:07.180Z,19.20
2018-07-14T12:03:45.570Z,19.10
2018-07-14T12:09:05.951Z,19.20
2018-07-14T12:14:27.342Z,19.20
2018-07-14T12:17:06.100Z,19.30
2018-07-14T12:19:47.505Z,19.50
2018-07-14T12:22:26.922Z,19.60
2018-07-14T12:25:04.042Z,19.80
2018-07-14T12:27:43.084Z,20.00
2018-07-14T12:30:22.932Z,20.30
2018-07-14T12:33:03.745Z,20.30
2018-07-14T12:35:47.767Z,20.30
2018-07-14T12:38:32.281Z,20.40
2018-07-14T12:41:13.596Z,20.40
2018-07-14T12:47:00.109Z,20.60
2018-07-14T12:50:12.553Z,20.60
2018-07-14T12:57:35.449Z,20.60
2018-07-14T13:00:17.398Z,20.50
2018-07-14T13:03:03.081Z,20.70
2018-07-14T13:05:44.922Z,20.90
2018-07-14T13:08:39.140Z,21.00
2018-07-14T13:11:41.136Z,21.00
2018-07-14T13:14:40.205Z,20.90
2018-07-14T13:17:20.490Z,20.80
2018-07-14T13:20:04.315Z,20.80
2018-07-14T13:28:04.284Z,21.40
2018-07-14T13:30:39.056Z,21.40
2018-07-14T13:33:19.914Z,21.40
2018-07-14T13:38:51.736Z,21.20
2018-07-14T13:41:25.873Z,21.00
2018-07-14T13:44:00.772Z,20.50
2018-07-14T13:46:47.829Z,20.20
2018-07-14T13:49:31.126Z,20.30
2018-07-14T13:52:11.216Z,20.30
2018-07-14T13:54:46.101Z,20.40
2018-07-14T13:57:20.888Z,20.50
2018-07-14T13:59:56.649Z,20.50
2018-07-14T14:02:31.364Z,20.40
2018-07-14T14:05:06.473Z,20.30
2018-07-14T14:07:41.239Z,19.90
2018-07-14T14:10:16.955Z,19.90
2018-07-14T14:15:25.974Z,19.90
2018-07-14T14:18:00.737Z,19.90
2018-07-14T14:20:35.569Z,20.20
2018-07-14T14:23:10.604Z,20.30
2018-07-14T14:25:45.407Z,20.30
2018-07-14T14:28:20.117Z,20.40
2018-07-14T14:30:54.887Z,20.40
2018-07-14T14:33:29.694Z,20.30
2018-07-14T14:36:04.476Z,20.10
2018-07-14T14:38:39.187Z,20.10
2018-07-14T14:41:13.976Z,20.40
2018-07-14T14:43:48.677Z,20.40
2018-07-14T14:46:23.478Z,20.40
2018-07-14T14:48:58.209Z,20.50
2018-07-14T14:51:32.965Z,20.50
2018-07-14T14:54:07.792Z,20.40
2018-07-14T14:56:43.535Z,20.40
2018-07-14T14:59:18.252Z,20.40
2018-07-14T15:01:53.177Z,20.30
2018-07-14T15:04:28.925Z,20.30
2018-07-14T15:07:03.695Z,20.20
2018-07-14T15:09:38.432Z,20.20
2018-07-14T15:12:13.222Z,20.20
2018-07-14T15:14:47.987Z,20.10
2018-07-14T15:17:22.716Z,20.30
2018-07-14T15:19:57.441Z,20.60
2018-07-14T15:22:32.280Z,20.50
2018-07-14T15:25:07.442Z,20.50
2018-07-14T15:27:42.278Z,20.30
2018-07-14T15:30:16.989Z,20.50
2018-07-14T15:32:51.864Z,20.60
2018-07-14T15:35:26.689Z,20.70
2018-07-14T15:40:35.721Z,20.60
2018-07-14T15:43:10.485Z,20.60
2018-07-14T15:45:45.190Z,20.50
2018-07-14T15:50:55.181Z,20.40
2018-07-14T15:53:29.929Z,20.40
2018-07-14T15:56:06.191Z,20.30
2018-07-14T15:58:40.924Z,20.40
2018-07-14T16:01:16.705Z,20.10
2018-07-14T16:03:51.515Z,20.20
2018-07-14T16:06:26.222Z,20.10
2018-07-14T16:09:00.981Z,20.10
2018-07-14T16:11:36.124Z,20.20
2018-07-14T16:14:11.910Z,20.10
2018-07-14T16:16:46.688Z,19.90
2018-07-14T16:19:21.406Z,19.80
2018-07-14T16:21:57.391Z,19.80
2018-07-14T16:24:32.176Z,19.80
2018-07-14T16:27:06.942Z,19.70
2018-07-14T16:29:41.744Z,19.60
2018-07-14T16:32:16.466Z,19.60
2018-07-14T16:34:52.247Z,19.50
2018-07-14T16:40:01.257Z,19.30
2018-07-14T16:42:36.040Z,19.30
2018-07-14T16:45:10.856Z,19.30
2018-07-14T16:47:46.585Z,19.30
2018-07-14T16:50:21.395Z,19.20
2018-07-14T16:52:57.234Z,19.20
2018-07-14T16:55:32.074Z,19.30
2018-07-14T16:58:06.797Z,19.20
2018-07-14T17:00:42.602Z,19.30
2018-07-14T17:03:37.335Z,19.30
2018-07-14T17:06:35.657Z,19.20
2018-07-14T17:12:51.363Z,19.20
2018-07-14T17:15:53.735Z,19.10
2018-07-14T17:30:35.647Z,18.90
2018-07-14T17:33:37.534Z,18.90
2018-07-14T17:43:07.199Z,18.70
2018-07-14T17:48:40.037Z,18.60
2018-07-14T17:51:15.042Z,18.60
2018-07-14T17:56:24.058Z,18.80
2018-07-14T17:58:59.869Z,19.00
2018-07-14T18:01:34.689Z,19.00
2018-07-14T18:04:09.491Z,18.90
2018-07-14T18:09:26.145Z,18.80
2018-07-14T18:12:01.893Z,18.60
2018-07-14T18:14:36.715Z,18.60
2018-07-14T18:17:11.678Z,18.50
2018-07-14T18:19:46.405Z,18.40
2018-07-14T18:22:21.143Z,18.20
2018-07-14T18:24:55.859Z,18.10
2018-07-14T18:27:30.596Z,18.00
2018-07-14T18:30:06.472Z,17.90
2018-07-14T18:32:41.237Z,17.90
2018-07-14T18:35:16.031Z,17.90
2018-07-14T18:40:25.100Z,17.80
2018-07-14T18:42:59.812Z,17.70
2018-07-14T18:45:34.564Z,17.70
2018-07-14T18:48:09.256Z,17.60
2018-07-14T18:50:43.985Z,17.50
2018-07-14T18:53:27.520Z,17.50
2018-07-14T18:58:49.869Z,17.30
2018-07-14T19:01:24.724Z,17.30
2018-07-14T19:04:19.280Z,17.20
2018-07-14T19:06:54.102Z,17.10
2018-07-14T19:12:03.044Z,16.80
2018-07-14T19:17:12.095Z,16.60
2018-07-14T19:19:46.825Z,16.50
2018-07-14T19:22:21.634Z,16.40
2018-07-14T19:24:56.386Z,16.30
2018-07-14T19:27:32.186Z,16.20
2018-07-14T19:30:10.000Z,16.00
2018-07-14T19:32:44.904Z,15.90
2018-07-14T19:35:20.697Z,15.80
2018-07-14T19:40:33.132Z,15.60
2018-07-14T19:43:11.461Z,15.50
2018-07-14T19:45:53.585Z,15.50
2018-07-14T19:48:31.945Z,15.40
2018-07-14T19:53:44.164Z,15.20
2018-07-14T19:56:18.988Z,15.10
2018-07-14T19:58:53.943Z,15.10
2018-07-14T20:01:29.761Z,15.00
2018-07-14T20:06:39.896Z,14.80
2018-07-14T20:09:14.804Z,14.70
2018-07-14T20:11:49.569Z,14.60
2018-07-14T20:14:24.284Z,14.50
2018-07-14T20:16:59.045Z,14.40
2018-07-14T20:28:40.678Z,14.10
2018-07-14T20:31:28.879Z,14.00
2018-07-14T20:34:15.063Z,13.90
2018-07-14T20:39:24.708Z,13.80
2018-07-14T20:41:59.977Z,13.70
2018-07-14T20:44:34.694Z,13.60
2018-07-14T20:47:09.409Z,13.50
2018-07-14T20:54:52.286Z,13.40
2018-07-14T20:57:27.491Z,13.50
2018-07-14T21:00:02.254Z,13.50
2018-07-14T21:02:36.487Z,13.40
2018-07-14T21:07:45.565Z,13.30
2018-07-14T21:10:20.773Z,13.30
2018-07-14T21:12:56.574Z,13.30
2018-07-14T21:15:30.749Z,13.30
2018-07-14T21:18:06.691Z,13.20
2018-07-14T21:20:40.918Z,13.20
2018-07-14T21:23:15.817Z,13.20
2018-07-14T21:25:50.583Z,13.20
2018-07-14T21:28:25.349Z,13.20
2018-07-14T21:31:00.564Z,13.20
2018-07-14T21:33:35.323Z,13.20
2018-07-14T21:36:10.142Z,13.20
2018-07-14T21:38:44.901Z,13.10
2018-07-14T21:41:19.167Z,13.00
2018-07-14T21:43:53.629Z,12.90
2018-07-14T21:46:28.405Z,12.90
2018-07-14T21:49:02.592Z,12.80
2018-07-14T21:51:36.820Z,12.80
2018-07-14T21:54:11.579Z,12.80
2018-07-14T21:56:47.638Z,12.80
2018-07-14T21:59:22.404Z,12.80
2018-07-14T22:01:59.045Z,12.80
2018-07-14T22:04:34.782Z,12.80
2018-07-14T22:07:10.577Z,12.70
2018-07-14T22:09:45.830Z,12.70
2018-07-14T22:12:21.028Z,12.70
2018-07-14T22:14:56.782Z,12.60
2018-07-14T22:17:33.481Z,12.50
2018-07-14T22:20:08.877Z,12.50
2018-07-14T22:23:01.703Z,12.50
2018-07-14T22:25:42.953Z,12.50
2018-07-14T22:28:21.804Z,12.40
2018-07-14T22:33:29.729Z,12.40
2018-07-14T22:38:46.053Z,12.40
2018-07-14T22:41:25.424Z,12.30
2018-07-14T22:44:03.268Z,12.30
2018-07-14T22:49:36.716Z,12.30
2018-07-14T22:52:20.461Z,12.30
2018-07-14T22:54:54.684Z,12.30
2018-07-14T22:57:28.929Z,12.20
2018-07-14T23:00:03.120Z,12.20
2018-07-14T23:02:37.366Z,12.20
2018-07-14T23:05:11.548Z,12.20
2018-07-14T23:07:45.776Z,12.10
2018-07-14T23:10:19.973Z,12.10
2018-07-14T23:12:55.199Z,12.10
2018-07-14T23:15:30.435Z,12.00
2018-07-14T23:18:04.655Z,12.00
2018-07-14T23:20:38.856Z,12.00
2018-07-14T23:23:13.119Z,12.00
2018-07-14T23:25:48.313Z,11.90
2018-07-14T23:28:22.532Z,11.90
2018-07-14T23:30:58.409Z,11.90
2018-07-14T23:33:33.861Z,12.00
2018-07-14T23:36:08.262Z,11.90
2018-07-14T23:38:43.526Z,11.90
2018-07-14T23:41:18.728Z,11.90
2018-07-14T23:43:53.923Z,11.90
2018-07-14T23:46:28.075Z,11.90
2018-07-14T23:49:02.317Z,11.90
2018-07-14T23:51:36.477Z,11.90
2018-07-14T23:54:11.717Z,11.90
2018-07-14T23:56:45.928Z,11.90
2018-07-14T23:59:20.168Z,12.00
